Time;durP1;ratioP1;P1;durP2;ratioP2;P2;SDS_P1;SDS_P2;PMS_P1;PMS_P2;Temp;Humidity;BMP_temperature;BMP_pressure;BME280_temperature;BME280_humidity;BME280_pressure;Samples;Min_cycle;Max_cycle;Signal;HPM_P1;HPM_P2
2022/10/26 00:02:19;;;;;;;23.50;15.20;;;;;;;;;;5110470;28;20051;-71
2022/10/26 00:04:45;;;;;;;20.40;14.63;;;;;;;;;;5113007;28;20082;-71
2022/10/26 00:07:11;;;;;;;22.20;14.27;;;;;;;;;;5109025;28;20040;-71
2022/10/26 00:09:37;;;;;;;23.60;14.82;;;;;;;;;;5111929;28;20083;-71
2022/10/26 00:12:03;;;;;;;20.85;14.35;;;;;;;;;;5105311;28;20056;-72
2022/10/26 00:14:30;;;;;;;22.45;14.50;;;;;;;;;;5106316;28;20062;-71
2022/10/26 00:16:56;;;;;;;18.05;14.35;;;;;;;;;;5106290;28;20074;-71
2022/10/26 00:19:22;;;;;;;23.23;16.00;;;;;;;;;;5104752;28;20055;-71
2022/10/26 00:21:48;;;;;;;27.67;15.30;;;;;;;;;;5105579;28;20054;-71
2022/10/26 00:24:14;;;;;;;23.75;14.25;;;;;;;;;;5105682;28;20093;-71
2022/10/26 00:26:40;;;;;;;18.30;14.15;;;;;;;;;;5105639;28;20035;-71
2022/10/26 00:29:07;;;;;;;21.73;15.55;;;;;;;;;;5106667;28;20418;-71
2022/10/26 00:31:33;;;;;;;22.67;15.35;;;;;;;;;;5109570;28;20070;-70
2022/10/26 00:33:59;;;;;;;19.35;13.95;;;;;;;;;;5105655;28;20039;-70
2022/10/26 00:36:26;;;;;;;21.58;14.45;;;;;;;;;;5104341;28;20042;-69
2022/10/26 00:38:54;;;;;;;21.27;14.15;;;;;;;;;;5113573;28;20043;-70
2022/10/26 00:41:21;;;;;;;22.20;13.95;;;;;;;;;;5113639;28;20048;-70
2022/10/26 00:43:48;;;;;;;20.30;14.23;;;;;;;;;;5113254;28;20078;-70
2022/10/26 00:46:19;;;;;;;19.00;13.27;;;;;;;;;;5110909;28;20040;-70
2022/10/26 00:48:45;;;;;;;;;;;;;;;;;;5109841;28;20499;-70
2022/10/26 00:51:14;;;;;;;20.42;13.38;;;;;;;;;;5109531;28;20389;-70
2022/10/26 00:53:41;;;;;;;17.13;13.27;;;;;;;;;;5111667;28;20044;-71
2022/10/26 00:56:08;;;;;;;19.42;13.43;;;;;;;;;;5109330;28;20043;-72
2022/10/26 00:58:34;;;;;;;20.70;13.82;;;;;;;;;;5111400;28;20481;-71
2022/10/26 01:01:00;;;;;;;22.52;14.00;;;;;;;;;;5093313;28;20036;-71
2022/10/26 01:03:27;;;;;;;18.33;13.73;;;;;;;;;;5109001;28;20067;-71
2022/10/26 01:05:55;;;;;;;20.15;13.55;;;;;;;;;;5111835;28;20058;-71
2022/10/26 01:08:21;;;;;;;19.15;13.18;;;;;;;;;;5111488;28;20393;-71
2022/10/26 01:10:47;;;;;;;25.48;14.25;;;;;;;;;;5111106;28;20048;-71
2022/10/26 01:13:15;;;;;;;20.75;14.38;;;;;;;;;;5110745;28;20066;-71
2022/10/26 01:15:44;;;;;;;20.80;13.13;;;;;;;;;;5112943;28;20451;-70
2022/10/26 01:18:16;;;;;;;23.20;14.60;;;;;;;;;;5110186;28;20101;-70
2022/10/26 01:21:02;;;;;;;16.90;12.77;;;;;;;;;;5111365;28;20042;-70
2022/10/26 01:23:28;;;;;;;17.63;13.13;;;;;;;;;;5111056;28;20043;-70
2022/10/26 01:26:04;;;;;;;18.88;13.43;;;;;;;;;;5113936;28;20407;-70
2022/10/26 01:28:30;;;;;;;21.25;14.25;;;;;;;;;;5111551;28;20035;-70
2022/10/26 01:30:58;;;;;;;19.45;14.50;;;;;;;;;;5113414;28;20063;-69
2022/10/26 01:33:33;;;;;;;28.15;16.20;;;;;;;;;;5106323;28;20095;-71
2022/10/26 01:36:09;;;;;;;22.85;15.80;;;;;;;;;;5111571;28;20040;-70
2022/10/26 01:38:42;;;;;;;27.88;16.33;;;;;;;;;;5111506;28;20036;-71
2022/10/26 01:41:08;;;;;;;24.60;15.18;;;;;;;;;;5112328;28;20082;-71
2022/10/26 01:43:38;;;;;;;27.10;17.02;;;;;;;;;;5112177;28;20036;-71
2022/10/26 01:46:05;;;;;;;27.50;17.08;;;;;;;;;;5110589;28;20047;-71
2022/10/26 01:48:32;;;;;;;23.50;15.85;;;;;;;;;;5111129;28;20035;-71
2022/10/26 01:50:59;;;;;;;23.42;16.00;;;;;;;;;;5110249;28;20059;-71
2022/10/26 01:53:26;;;;;;;24.30;16.42;;;;;;;;;;5110809;28;20040;-71
2022/10/26 01:55:54;;;;;;;29.63;17.05;;;;;;;;;;5106705;28;20052;-71
2022/10/26 01:58:39;;;;;;;25.85;17.02;;;;;;;;;;5110555;28;20478;-71
2022/10/26 02:01:12;;;;;;;25.98;17.52;;;;;;;;;;5108965;28;20051;-71
2022/10/26 02:03:41;;;;;;;30.38;17.73;;;;;;;;;;5091059;28;20061;-71
2022/10/26 02:06:16;;;;;;;29.05;17.88;;;;;;;;;;5110753;28;20043;-70
2022/10/26 02:08:49;;;;;;;30.50;18.20;;;;;;;;;;5111137;28;20089;-70
2022/10/26 02:11:36;;;;;;;26.30;17.83;;;;;;;;;;5111182;28;20070;-70
2022/10/26 02:14:07;;;;;;;25.23;17.33;;;;;;;;;;5108058;28;20075;-70
2022/10/26 02:16:48;;;;;;;29.35;18.45;;;;;;;;;;5111885;28;20109;-71
2022/10/26 02:19:24;;;;;;;27.13;18.58;;;;;;;;;;5110521;28;20088;-70
2022/10/26 02:21:53;;;;;;;25.92;17.75;;;;;;;;;;5111783;28;20043;-70
2022/10/26 02:24:20;;;;;;;30.52;18.80;;;;;;;;;;5091836;28;20047;-70
2022/10/26 02:26:47;;;;;;;30.85;19.10;;;;;;;;;;5111572;28;20039;-70
2022/10/26 02:29:15;;;;;;;26.65;18.23;;;;;;;;;;5110768;28;20485;-70
2022/10/26 02:31:42;;;;;;;25.92;17.50;;;;;;;;;;5108488;28;20409;-70
2022/10/26 02:34:10;;;;;;;23.73;17.42;;;;;;;;;;5109655;28;20097;-70
2022/10/26 02:36:38;;;;;;;24.48;18.42;;;;;;;;;;5110676;28;20437;-70
2022/10/26 02:39:05;;;;;;;27.20;19.08;;;;;;;;;;5109920;28;20051;-71
2022/10/26 02:41:32;;;;;;;27.90;19.20;;;;;;;;;;5097377;28;20040;-69
2022/10/26 02:44:08;;;;;;;30.77;19.27;;;;;;;;;;5096891;28;20047;-70
2022/10/26 02:46:34;;;;;;;31.20;19.77;;;;;;;;;;5111222;28;20039;-70
2022/10/26 02:49:00;;;;;;;29.90;19.67;;;;;;;;;;5109275;28;20044;-70
2022/10/26 02:51:32;;;;;;;30.05;20.27;;;;;;;;;;5112115;28;20047;-69
2022/10/26 02:54:05;;;;;;;35.30;19.95;;;;;;;;;;5101907;28;20086;-69
2022/10/26 02:56:39;;;;;;;32.38;21.05;;;;;;;;;;5110090;28;20067;-70
2022/10/26 02:59:06;;;;;;;31.92;19.55;;;;;;;;;;5110064;28;20381;-70
2022/10/26 03:01:33;;;;;;;28.55;20.27;;;;;;;;;;5109077;28;20543;-70
2022/10/26 03:03:59;;;;;;;37.67;21.60;;;;;;;;;;5107975;28;20051;-70
2022/10/26 03:06:26;;;;;;;34.63;22.00;;;;;;;;;;5110867;28;20036;-70
2022/10/26 03:08:52;;;;;;;34.20;21.88;;;;;;;;;;5111094;28;20043;-70
2022/10/26 03:11:18;;;;;;;33.28;22.50;;;;;;;;;;5111073;28;20056;-71
2022/10/26 03:13:44;;;;;;;35.97;23.65;;;;;;;;;;5111340;28;20036;-71
2022/10/26 03:16:10;;;;;;;38.30;23.00;;;;;;;;;;5108623;28;20124;-71
2022/10/26 03:18:37;;;;;;;38.63;22.98;;;;;;;;;;5091862;28;20056;-70
2022/10/26 03:21:03;;;;;;;35.60;22.90;;;;;;;;;;5114666;28;20439;-71
2022/10/26 03:23:29;;;;;;;33.80;22.42;;;;;;;;;;5115024;28;20078;-71
2022/10/26 03:25:58;;;;;;;35.65;22.65;;;;;;;;;;5112006;28;20043;-71
2022/10/26 03:28:25;;;;;;;35.67;21.58;;;;;;;;;;5114844;28;20421;-71
2022/10/26 03:30:51;;;;;;;39.45;23.65;;;;;;;;;;5114626;28;20050;-71
2022/10/26 03:33:17;;;;;;;30.40;21.88;;;;;;;;;;5112223;28;20485;-71
2022/10/26 03:35:43;;;;;;;35.00;23.05;;;;;;;;;;5113917;28;20047;-71
2022/10/26 03:38:09;;;;;;;41.67;24.48;;;;;;;;;;5095083;28;20040;-72
2022/10/26 03:40:35;;;;;;;34.47;22.23;;;;;;;;;;5116078;28;20035;-72
2022/10/26 03:43:02;;;;;;;34.38;23.00;;;;;;;;;;5112775;28;20048;-72
2022/10/26 03:45:28;;;;;;;37.03;23.60;;;;;;;;;;5113497;28;20036;-71
2022/10/26 03:47:54;;;;;;;35.70;23.05;;;;;;;;;;5091098;28;20047;-71
2022/10/26 03:50:21;;;;;;;36.58;24.17;;;;;;;;;;5115288;28;20518;-71
2022/10/26 03:52:48;;;;;;;35.58;23.98;;;;;;;;;;5111551;28;20039;-71
2022/10/26 03:55:14;;;;;;;35.05;22.85;;;;;;;;;;5114082;28;20512;-71
2022/10/26 03:57:44;;;;;;;37.15;23.55;;;;;;;;;;5108833;28;20044;-71
2022/10/26 04:00:14;;;;;;;35.40;22.77;;;;;;;;;;5114380;28;20421;-71
2022/10/26 04:02:40;;;;;;;35.05;23.83;;;;;;;;;;5109752;28;20044;-71
2022/10/26 04:05:06;;;;;;;37.65;22.90;;;;;;;;;;5110062;28;20051;-71
2022/10/26 04:07:32;;;;;;;37.60;24.23;;;;;;;;;;5110202;28;20116;-71
2022/10/26 04:09:59;;;;;;;42.55;25.00;;;;;;;;;;5111440;28;20039;-71
2022/10/26 04:12:25;;;;;;;39.55;25.17;;;;;;;;;;5112459;28;20122;-71
2022/10/26 04:14:51;;;;;;;39.42;24.70;;;;;;;;;;5094923;28;20490;-71
2022/10/26 04:17:17;;;;;;;47.15;25.98;;;;;;;;;;5109924;28;20074;-71
2022/10/26 04:19:43;;;;;;;41.45;25.40;;;;;;;;;;5114633;28;20043;-71
2022/10/26 04:22:09;;;;;;;40.90;25.45;;;;;;;;;;5112830;28;20405;-71
2022/10/26 04:24:35;;;;;;;40.97;26.27;;;;;;;;;;5110056;28;20410;-71
2022/10/26 04:27:01;;;;;;;42.13;25.13;;;;;;;;;;5111412;28;20082;-71
2022/10/26 04:29:27;;;;;;;44.53;24.83;;;;;;;;;;5113036;28;20040;-71
2022/10/26 04:31:53;;;;;;;39.53;24.40;;;;;;;;;;5110133;28;20093;-71
2022/10/26 04:34:19;;;;;;;35.80;24.52;;;;;;;;;;5110571;28;20116;-71
2022/10/26 04:36:45;;;;;;;37.17;24.35;;;;;;;;;;5109466;28;20055;-71
2022/10/26 04:39:11;;;;;;;38.63;24.30;;;;;;;;;;5110280;28;20031;-71
2022/10/26 04:41:37;;;;;;;38.13;23.27;;;;;;;;;;5112601;28;20039;-71
2022/10/26 04:44:03;;;;;;;36.38;23.10;;;;;;;;;;5113073;28;20040;-72
2022/10/26 04:46:30;;;;;;;37.47;23.73;;;;;;;;;;5111503;28;20050;-71
2022/10/26 04:48:56;;;;;;;38.42;23.00;;;;;;;;;;5113214;28;20075;-71
2022/10/26 04:51:22;;;;;;;34.30;22.33;;;;;;;;;;5112301;28;20044;-71
2022/10/26 04:53:48;;;;;;;35.47;21.58;;;;;;;;;;5112676;28;20089;-71
2022/10/26 04:56:14;;;;;;;38.15;23.40;;;;;;;;;;5107656;28;20043;-71
2022/10/26 04:58:40;;;;;;;36.78;23.00;;;;;;;;;;5094654;28;20075;-71
2022/10/26 05:01:06;;;;;;;36.72;23.52;;;;;;;;;;5092771;28;20489;-71
2022/10/26 05:03:32;;;;;;;41.72;23.90;;;;;;;;;;5110610;28;20489;-71
2022/10/26 05:05:58;;;;;;;35.47;23.65;;;;;;;;;;5109149;28;20413;-71
2022/10/26 05:08:24;;;;;;;44.20;24.08;;;;;;;;;;5113358;28;20039;-71
2022/10/26 05:10:51;;;;;;;36.05;23.70;;;;;;;;;;5110886;28;20044;-71
2022/10/26 05:13:17;;;;;;;34.70;23.35;;;;;;;;;;5111553;28;20560;-71
2022/10/26 05:15:43;;;;;;;37.85;23.17;;;;;;;;;;5112707;28;20130;-71
2022/10/26 05:18:09;;;;;;;35.97;21.13;;;;;;;;;;5111327;28;20051;-71
2022/10/26 05:20:35;;;;;;;41.40;22.52;;;;;;;;;;5112411;28;20039;-71
2022/10/26 05:23:02;;;;;;;38.17;23.35;;;;;;;;;;5111139;28;20092;-70
2022/10/26 05:25:30;;;;;;;35.17;21.27;;;;;;;;;;5112425;28;20055;-70
2022/10/26 05:28:00;;;;;;;36.58;22.80;;;;;;;;;;5109046;28;20543;-70
2022/10/26 05:30:26;;;;;;;31.05;20.80;;;;;;;;;;5114068;28;20055;-70
2022/10/26 05:32:53;;;;;;;37.25;21.98;;;;;;;;;;5109016;28;20058;-70
2022/10/26 05:35:19;;;;;;;36.13;21.77;;;;;;;;;;5110421;28;20039;-70
2022/10/26 05:37:45;;;;;;;30.52;21.25;;;;;;;;;;5093425;28;20043;-70
2022/10/26 05:40:11;;;;;;;33.28;21.27;;;;;;;;;;5112576;28;20104;-70
2022/10/26 05:42:37;;;;;;;33.60;20.55;;;;;;;;;;5107634;28;20081;-70
2022/10/26 05:45:04;;;;;;;31.70;20.52;;;;;;;;;;5112912;28;20052;-70
2022/10/26 05:47:30;;;;;;;30.70;19.90;;;;;;;;;;5112662;28;20050;-70
2022/10/26 05:49:56;;;;;;;32.20;20.52;;;;;;;;;;5113065;28;20052;-69
2022/10/26 05:52:22;;;;;;;33.38;20.60;;;;;;;;;;5113180;28;20066;-70
2022/10/26 05:54:48;;;;;;;31.13;19.92;;;;;;;;;;5111914;28;20039;-70
2022/10/26 05:57:14;;;;;;;31.95;20.88;;;;;;;;;;5111375;28;20043;-70
2022/10/26 05:59:40;;;;;;;31.83;20.20;;;;;;;;;;5111996;28;20374;-69
2022/10/26 06:02:24;;;;;;;33.92;20.42;;;;;;;;;;5109850;28;20043;-70
2022/10/26 06:04:50;;;;;;;33.80;20.83;;;;;;;;;;5108432;28;20048;-70
2022/10/26 06:07:18;;;;;;;32.20;19.85;;;;;;;;;;5109912;28;20085;-71
2022/10/26 06:09:45;;;;;;;34.97;20.85;;;;;;;;;;5108666;28;20047;-70
2022/10/26 06:12:12;;;;;;;31.05;19.80;;;;;;;;;;5107278;28;20468;-70
2022/10/26 06:14:38;;;;;;;26.88;19.38;;;;;;;;;;5104505;28;20047;-70
2022/10/26 06:17:04;;;;;;;30.35;19.45;;;;;;;;;;5107694;28;20040;-72
2022/10/26 06:19:38;;;;;;;30.35;19.15;;;;;;;;;;5102302;28;20044;-71
2022/10/26 06:22:04;;;;;;;34.90;20.52;;;;;;;;;;5102188;28;20052;-71
2022/10/26 06:24:37;;;;;;;32.25;18.75;;;;;;;;;;5109967;28;20138;-71
2022/10/26 06:27:21;;;;;;;32.55;19.10;;;;;;;;;;5093712;28;20043;-71
2022/10/26 06:30:00;;;;;;;27.77;18.85;;;;;;;;;;5111850;28;20082;-70
2022/10/26 06:32:26;;;;;;;30.30;18.38;;;;;;;;;;5112202;28;20052;-71
2022/10/26 06:34:57;;;;;;;35.67;18.73;;;;;;;;;;5108369;28;20052;-71
2022/10/26 06:37:24;;;;;;;33.38;18.65;;;;;;;;;;5095251;28;20473;-70
2022/10/26 06:39:51;;;;;;;29.45;17.48;;;;;;;;;;5098462;28;20040;-72
2022/10/26 06:42:17;;;;;;;25.02;17.10;;;;;;;;;;5112224;28;20048;-71
2022/10/26 06:44:43;;;;;;;23.45;16.63;;;;;;;;;;5075797;28;20056;-71
2022/10/26 06:47:12;;;;;;;26.55;16.95;;;;;;;;;;5110980;28;20046;-71
2022/10/26 06:49:48;;;;;;;25.58;15.95;;;;;;;;;;5110609;28;20096;-71
2022/10/26 06:52:14;;;;;;;25.35;16.23;;;;;;;;;;5098273;28;20405;-71
2022/10/26 06:54:40;;;;;;;22.25;16.15;;;;;;;;;;5111935;28;20040;-71
2022/10/26 06:57:11;;;;;;;21.52;14.73;;;;;;;;;;5103177;28;20059;-71
2022/10/26 06:59:39;;;;;;;23.33;15.90;;;;;;;;;;5112066;28;20050;-71
2022/10/26 07:02:05;;;;;;;25.40;14.55;;;;;;;;;;5110171;28;20081;-71
2022/10/26 07:04:31;;;;;;;20.15;15.20;;;;;;;;;;5113734;28;20035;-71
2022/10/26 07:06:58;;;;;;;20.60;13.68;;;;;;;;;;5113629;28;20036;-71
2022/10/26 07:09:23;;;;;;;22.58;14.65;;;;;;;;;;5112665;28;20065;-74
2022/10/26 07:11:49;;;;;;;20.35;12.32;;;;;;;;;;5114941;28;20056;-70
2022/10/26 07:14:15;;;;;;;18.15;10.65;;;;;;;;;;5114572;28;20052;-71
2022/10/26 07:16:42;;;;;;;19.40;11.48;;;;;;;;;;5100874;28;20040;-73
2022/10/26 07:19:08;;;;;;;14.45;11.05;;;;;;;;;;5112300;28;20528;-71
2022/10/26 07:21:34;;;;;;;17.02;11.07;;;;;;;;;;5083171;28;20414;-70
2022/10/26 07:24:00;;;;;;;22.23;11.23;;;;;;;;;;5104569;28;20044;-71
2022/10/26 07:26:26;;;;;;;18.08;10.70;;;;;;;;;;5111725;28;20058;-70
2022/10/26 07:28:52;;;;;;;15.75;11.18;;;;;;;;;;5113679;28;20040;-70
2022/10/26 07:31:18;;;;;;;18.08;10.75;;;;;;;;;;5113246;28;20501;-70
2022/10/26 07:33:45;;;;;;;16.40;10.02;;;;;;;;;;5111987;28;20040;-70
2022/10/26 07:36:11;;;;;;;16.40;9.60;;;;;;;;;;5114110;28;20043;-69
2022/10/26 07:38:38;;;;;;;14.43;9.52;;;;;;;;;;5112342;28;20429;-69
2022/10/26 07:41:04;;;;;;;20.15;9.82;;;;;;;;;;5111648;28;20081;-70
2022/10/26 07:43:30;;;;;;;16.95;9.93;;;;;;;;;;5111242;28;20409;-70
2022/10/26 07:45:56;;;;;;;19.38;10.93;;;;;;;;;;5113720;28;20039;-70
2022/10/26 07:48:23;;;;;;;14.23;9.80;;;;;;;;;;5108885;28;20086;-69
2022/10/26 07:50:49;;;;;;;17.50;9.18;;;;;;;;;;5093473;28;20047;-70
2022/10/26 07:53:15;;;;;;;18.15;9.40;;;;;;;;;;5110234;28;20111;-71
2022/10/26 07:55:41;;;;;;;16.38;9.25;;;;;;;;;;5112131;28;20438;-70
2022/10/26 07:58:07;;;;;;;15.13;8.48;;;;;;;;;;5110699;28;20063;-70
2022/10/26 08:00:33;;;;;;;14.02;8.68;;;;;;;;;;5108031;28;20047;-70
2022/10/26 08:02:59;;;;;;;15.07;8.60;;;;;;;;;;5112979;28;20533;-69
2022/10/26 08:05:25;;;;;;;12.25;7.82;;;;;;;;;;5108724;28;20489;-71
2022/10/26 08:07:51;;;;;;;12.38;7.07;;;;;;;;;;5112824;28;20044;-69
2022/10/26 08:10:17;;;;;;;13.70;7.50;;;;;;;;;;5111641;28;20119;-70
2022/10/26 08:12:43;;;;;;;52.03;20.02;;;;;;;;;;5112137;28;20130;-69
2022/10/26 08:15:10;;;;;;;29.33;13.25;;;;;;;;;;5111683;28;20043;-69
2022/10/26 08:17:36;;;;;;;32.90;12.45;;;;;;;;;;5096258;28;20119;-70
2022/10/26 08:20:03;;;;;;;51.30;12.43;;;;;;;;;;5111221;28;20067;-69
2022/10/26 08:22:29;;;;;;;37.20;12.25;;;;;;;;;;5100130;28;20051;-70
2022/10/26 08:24:55;;;;;;;18.17;8.05;;;;;;;;;;5111597;28;20035;-70
2022/10/26 08:27:21;;;;;;;28.63;8.88;;;;;;;;;;5112400;28;20082;-69
2022/10/26 08:29:47;;;;;;;45.65;9.25;;;;;;;;;;5113267;28;20071;-70
2022/10/26 08:32:13;;;;;;;30.13;8.93;;;;;;;;;;5111740;28;20488;-70
2022/10/26 08:34:39;;;;;;;40.85;9.55;;;;;;;;;;5112917;28;20039;-69
2022/10/26 08:37:05;;;;;;;23.13;8.55;;;;;;;;;;5111923;28;20039;-69
2022/10/26 08:39:31;;;;;;;25.40;7.00;;;;;;;;;;5097914;28;20132;-70
2022/10/26 08:42:02;;;;;;;18.17;6.97;;;;;;;;;;5093749;28;20516;-69
2022/10/26 08:44:38;;;;;;;22.50;7.10;;;;;;;;;;5112955;28;20039;-69
2022/10/26 08:47:09;;;;;;;29.08;7.50;;;;;;;;;;5095387;28;20460;-71
2022/10/26 08:49:42;;;;;;;19.63;6.90;;;;;;;;;;5102350;28;20046;-69
2022/10/26 08:52:11;;;;;;;18.88;6.93;;;;;;;;;;5100161;28;20914;-70
2022/10/26 08:54:39;;;;;;;15.55;6.45;;;;;;;;;;5109229;28;20055;-72
2022/10/26 08:57:13;;;;;;;15.77;6.40;;;;;;;;;;5091714;28;20036;-72
2022/10/26 08:59:43;;;;;;;12.50;6.00;;;;;;;;;;5112389;28;20042;-70
2022/10/26 09:02:13;;;;;;;9.95;6.32;;;;;;;;;;5111784;28;20047;-69
2022/10/26 09:04:39;;;;;;;19.92;6.63;;;;;;;;;;5109472;28;20059;-69
2022/10/26 09:07:11;;;;;;;11.43;6.78;;;;;;;;;;5107248;28;20079;-70
2022/10/26 09:09:55;;;;;;;13.77;6.90;;;;;;;;;;5112217;28;20126;-68
2022/10/26 09:12:21;;;;;;;18.55;6.68;;;;;;;;;;5112213;28;20054;-70
2022/10/26 09:14:59;;;;;;;10.55;6.22;;;;;;;;;;5110630;28;20493;-70
2022/10/26 09:17:31;;;;;;;12.05;6.15;;;;;;;;;;5109814;28;20035;-71
2022/10/26 09:19:57;;;;;;;15.00;6.70;;;;;;;;;;5110420;28;20398;-71
2022/10/26 09:22:23;;;;;;;12.25;5.88;;;;;;;;;;5112278;28;20043;-71
2022/10/26 09:24:53;;;;;;;10.60;5.53;;;;;;;;;;5110732;28;20036;-71
2022/10/26 09:27:36;;;;;;;10.35;5.43;;;;;;;;;;5111769;28;20047;-71
2022/10/26 09:30:12;;;;;;;22.90;6.47;;;;;;;;;;5108695;28;20047;-71
2022/10/26 09:32:43;;;;;;;22.80;6.85;;;;;;;;;;5096076;28;20044;-71
2022/10/26 09:35:13;;;;;;;14.10;5.97;;;;;;;;;;5094706;28;20071;-69
2022/10/26 09:37:45;;;;;;;15.25;5.80;;;;;;;;;;5103023;28;20039;-70
2022/10/26 09:40:14;;;;;;;12.50;5.38;;;;;;;;;;5109431;28;20039;-71
2022/10/26 09:42:43;;;;;;;17.25;5.70;;;;;;;;;;5112211;28;20052;-70
2022/10/26 09:45:12;;;;;;;10.93;5.57;;;;;;;;;;5111031;28;20501;-71
2022/10/26 09:47:41;;;;;;;11.45;5.65;;;;;;;;;;5109259;28;20442;-70
2022/10/26 09:50:13;;;;;;;9.73;4.70;;;;;;;;;;5110312;28;20061;-70
2022/10/26 09:52:39;;;;;;;9.88;4.40;;;;;;;;;;5110402;28;20055;-70
2022/10/26 09:55:05;;;;;;;8.98;4.22;;;;;;;;;;5111499;28;20055;-70
2022/10/26 09:57:32;;;;;;;11.15;4.30;;;;;;;;;;5110316;28;20078;-71
2022/10/26 09:59:58;;;;;;;8.75;4.05;;;;;;;;;;5111140;28;20042;-70
2022/10/26 10:02:33;;;;;;;8.25;4.13;;;;;;;;;;5092689;28;20043;-70
2022/10/26 10:04:59;;;;;;;11.82;4.30;;;;;;;;;;5111639;28;20089;-70
2022/10/26 10:07:25;;;;;;;10.63;3.92;;;;;;;;;;5110009;28;20048;-70
2022/10/26 10:10:15;;;;;;;9.73;3.70;;;;;;;;;;5109802;28;20510;-74
2022/10/26 10:12:41;;;;;;;9.15;3.80;;;;;;;;;;5111112;28;20047;-72
2022/10/26 10:15:18;;;;;;;7.13;3.70;;;;;;;;;;5103606;28;20040;-73
2022/10/26 10:17:51;;;;;;;11.50;3.80;;;;;;;;;;5110671;28;20050;-71
2022/10/26 10:20:21;;;;;;;7.90;3.60;;;;;;;;;;5111997;28;20054;-72
2022/10/26 10:23:00;;;;;;;7.95;3.60;;;;;;;;;;5111552;28;20417;-68
2022/10/26 10:25:36;;;;;;;15.63;3.75;;;;;;;;;;5111142;28;20040;-68
2022/10/26 10:28:19;;;;;;;8.95;3.42;;;;;;;;;;5091719;28;20354;-68
2022/10/26 10:30:52;;;;;;;10.88;3.78;;;;;;;;;;5116170;28;20115;-68
2022/10/26 10:33:18;;;;;;;9.75;3.38;;;;;;;;;;5114433;28;20131;-67
2022/10/26 10:35:48;;;;;;;9.45;3.20;;;;;;;;;;5114176;28;20115;-67
2022/10/26 10:38:21;;;;;;;15.65;3.67;;;;;;;;;;5113847;28;20070;-67
2022/10/26 10:40:51;;;;;;;9.90;3.25;;;;;;;;;;5099149;28;20047;-67
2022/10/26 10:43:17;;;;;;;9.93;3.35;;;;;;;;;;5108653;28;20048;-67
2022/10/26 10:45:47;;;;;;;8.98;3.40;;;;;;;;;;5116477;28;20047;-67
2022/10/26 10:48:19;;;;;;;8.98;3.20;;;;;;;;;;5113374;28;20048;-67
2022/10/26 10:51:11;;;;;;;10.80;3.15;;;;;;;;;;5096263;28;20508;-67
2022/10/26 10:54:06;;;;;;;8.90;3.40;;;;;;;;;;5113255;28;20043;-67
2022/10/26 10:56:32;;;;;;;9.35;3.20;;;;;;;;;;5071920;28;20097;-67
2022/10/26 10:59:04;;;;;;;8.70;3.28;;;;;;;;;;5087123;28;20066;-67
2022/10/26 11:01:35;;;;;;;9.00;3.00;;;;;;;;;;5104294;28;20503;-67
2022/10/26 11:04:06;;;;;;;7.85;2.80;;;;;;;;;;5095768;28;20443;-67
2022/10/26 11:06:36;;;;;;;9.52;3.08;;;;;;;;;;5110030;28;20039;-68
2022/10/26 11:09:05;;;;;;;7.60;2.80;;;;;;;;;;5107375;28;20065;-68
2022/10/26 11:11:33;;;;;;;11.38;3.10;;;;;;;;;;5093927;28;20130;-69
2022/10/26 11:14:07;;;;;;;20.42;3.70;;;;;;;;;;5115044;28;20303;-68
2022/10/26 11:16:40;;;;;;;40.38;4.90;;;;;;;;;;5091238;28;20038;-68
2022/10/26 11:19:24;;;;;;;13.70;3.60;;;;;;;;;;5113363;28;20400;-68
2022/10/26 11:21:53;;;;;;;16.23;3.30;;;;;;;;;;5113282;28;20052;-68
2022/10/26 11:24:19;;;;;;;16.13;3.20;;;;;;;;;;5110727;28;20935;-68
2022/10/26 11:26:47;;;;;;;13.38;3.45;;;;;;;;;;5108339;28;20039;-69
2022/10/26 11:29:21;;;;;;;28.00;3.88;;;;;;;;;;5109479;28;20035;-69
2022/10/26 11:31:53;;;;;;;17.27;3.65;;;;;;;;;;5114521;28;20520;-69
2022/10/26 11:34:36;;;;;;;14.82;3.50;;;;;;;;;;5108106;28;20086;-69
2022/10/26 11:37:05;;;;;;;14.93;3.60;;;;;;;;;;5093020;28;20139;-72
2022/10/26 11:39:38;;;;;;;10.50;3.50;;;;;;;;;;5112995;28;20040;-69
2022/10/26 11:42:04;;;;;;;12.48;3.33;;;;;;;;;;5113388;28;20400;-69
2022/10/26 11:44:35;;;;;;;9.57;3.20;;;;;;;;;;5114670;28;20401;-71
2022/10/26 11:47:08;;;;;;;8.02;3.10;;;;;;;;;;5115413;28;20048;-70
2022/10/26 11:49:53;;;;;;;8.30;3.15;;;;;;;;;;5115038;28;20039;-69
2022/10/26 11:52:19;;;;;;;10.40;3.25;;;;;;;;;;5107406;28;20047;-69
2022/10/26 11:54:51;;;;;;;7.82;2.70;;;;;;;;;;5114622;28;20512;-69
2022/10/26 11:57:17;;;;;;;11.82;3.22;;;;;;;;;;5091881;28;20454;-69
2022/10/26 11:59:47;;;;;;;74.80;5.93;;;;;;;;;;5113187;28;20080;-69
2022/10/26 12:02:24;;;;;;;35.60;3.88;;;;;;;;;;5112278;28;20054;-69
2022/10/26 12:04:52;;;;;;;23.80;3.55;;;;;;;;;;5110727;28;20074;-70
2022/10/26 12:07:26;;;;;;;20.90;3.50;;;;;;;;;;5108309;28;20130;-69
2022/10/26 12:09:53;;;;;;;27.48;4.22;;;;;;;;;;5111601;28;20043;-70
2022/10/26 12:12:38;;;;;;;24.83;4.03;;;;;;;;;;5110793;28;20058;-70
2022/10/26 12:15:17;;;;;;;12.63;3.25;;;;;;;;;;5111183;28;20066;-70
2022/10/26 12:17:43;;;;;;;8.35;3.17;;;;;;;;;;5094191;28;20470;-70
2022/10/26 12:20:28;;;;;;;13.75;3.22;;;;;;;;;;5111347;28;20118;-69
2022/10/26 12:22:54;;;;;;;9.40;3.30;;;;;;;;;;5113187;28;20047;-70
2022/10/26 12:25:21;;;;;;;7.45;3.05;;;;;;;;;;5113646;28;20514;-70
2022/10/26 12:27:47;;;;;;;7.63;2.95;;;;;;;;;;5108939;28;20040;-70
2022/10/26 12:30:19;;;;;;;7.82;2.92;;;;;;;;;;5110911;28;20046;-69
2022/10/26 12:32:48;;;;;;;11.13;3.70;;;;;;;;;;5110334;28;20070;-69
2022/10/26 12:35:14;;;;;;;8.38;3.22;;;;;;;;;;5111281;28;20040;-69
2022/10/26 12:37:40;;;;;;;9.65;3.22;;;;;;;;;;5112528;28;20050;-69
2022/10/26 12:40:24;;;;;;;8.02;3.33;;;;;;;;;;5111624;28;20035;-70
2022/10/26 12:42:50;;;;;;;10.13;3.90;;;;;;;;;;5113293;28;20048;-69
2022/10/26 12:45:19;;;;;;;9.88;3.47;;;;;;;;;;5110755;28;20440;-70
2022/10/26 12:47:48;;;;;;;7.97;2.75;;;;;;;;;;5110291;28;20044;-70
2022/10/26 12:50:13;;;;;;;9.13;3.17;;;;;;;;;;5093680;28;20044;-70
2022/10/26 12:52:42;;;;;;;10.73;3.30;;;;;;;;;;5112173;28;20128;-70
2022/10/26 12:55:11;;;;;;;7.00;2.92;;;;;;;;;;5098521;28;20131;-70
2022/10/26 12:57:43;;;;;;;8.93;3.35;;;;;;;;;;5095838;27;20047;-70
2022/10/26 13:00:13;;;;;;;10.20;3.00;;;;;;;;;;5106735;28;20434;-70
2022/10/26 13:02:51;;;;;;;10.20;3.42;;;;;;;;;;5109561;28;20044;-70
2022/10/26 13:05:23;;;;;;;11.40;3.90;;;;;;;;;;5107294;28;20056;-70
2022/10/26 13:07:49;;;;;;;8.57;3.55;;;;;;;;;;5100036;28;20122;-70
2022/10/26 13:10:21;;;;;;;10.93;3.50;;;;;;;;;;5111153;28;20100;-70
2022/10/26 13:12:54;;;;;;;7.68;3.63;;;;;;;;;;5092634;28;20517;-70
2022/10/26 13:15:20;;;;;;;9.15;3.50;;;;;;;;;;5093209;28;20047;-70
2022/10/26 13:18:08;;;;;;;8.90;3.33;;;;;;;;;;5081996;28;20134;-70
2022/10/26 13:20:35;;;;;;;12.15;3.50;;;;;;;;;;5112891;28;20039;-70
2022/10/26 13:23:02;;;;;;;9.25;3.97;;;;;;;;;;5107970;27;20097;-70
2022/10/26 13:25:29;;;;;;;9.18;3.30;;;;;;;;;;5109938;28;20042;-70
2022/10/26 13:28:00;;;;;;;9.15;3.60;;;;;;;;;;5112948;28;20485;-70
2022/10/26 13:30:43;;;;;;;10.00;3.63;;;;;;;;;;5105541;27;20062;-69
2022/10/26 13:33:21;;;;;;;8.95;3.47;;;;;;;;;;5111352;28;20040;-70
2022/10/26 13:35:47;;;;;;;9.20;3.92;;;;;;;;;;5106687;28;20172;-70
2022/10/26 13:38:18;;;;;;;11.05;4.38;;;;;;;;;;5113033;28;20100;-70
2022/10/26 13:40:44;;;;;;;11.25;3.78;;;;;;;;;;5112382;28;20128;-70
2022/10/26 13:43:15;;;;;;;10.98;3.88;;;;;;;;;;5113024;28;20619;-70
2022/10/26 13:46:01;;;;;;;11.88;4.03;;;;;;;;;;5099883;28;20521;-70
2022/10/26 13:48:31;;;;;;;9.63;3.60;;;;;;;;;;5095192;28;20078;-70
2022/10/26 13:50:59;;;;;;;11.57;3.75;;;;;;;;;;5112417;28;20130;-70
2022/10/26 13:53:37;;;;;;;14.52;3.80;;;;;;;;;;5107488;28;20028;-70
2022/10/26 13:56:42;;;;;;;8.73;3.22;;;;;;;;;;5109555;28;20044;-70
2022/10/26 13:59:10;;;;;;;8.70;3.33;;;;;;;;;;5009707;28;20038;-70
2022/10/26 14:01:36;;;;;;;9.75;3.88;;;;;;;;;;5009867;28;20041;-70
2022/10/26 14:04:15;;;;;;;12.93;3.55;;;;;;;;;;5009815;28;20061;-70
2022/10/26 14:06:50;;;;;;;11.60;3.53;;;;;;;;;;5009118;28;20103;-70
2022/10/26 14:09:17;;;;;;;8.15;3.55;;;;;;;;;;5009223;28;20137;-70
2022/10/26 14:11:50;;;;;;;10.25;3.67;;;;;;;;;;5009832;28;20519;-70
2022/10/26 14:14:22;;;;;;;10.65;3.70;;;;;;;;;;5009683;28;20189;-70
2022/10/26 14:16:49;;;;;;;8.75;3.72;;;;;;;;;;5009612;28;20085;-71
2022/10/26 14:19:25;;;;;;;10.13;4.18;;;;;;;;;;5009638;28;20038;-71
2022/10/26 14:21:51;;;;;;;11.57;3.47;;;;;;;;;;5010023;28;20054;-71
2022/10/26 14:24:21;;;;;;;9.77;3.75;;;;;;;;;;5008221;28;20046;-70
2022/10/26 14:26:47;;;;;;;7.85;3.72;;;;;;;;;;5009073;28;20080;-71
2022/10/26 14:29:18;;;;;;;10.13;4.25;;;;;;;;;;5032523;28;20078;-71
2022/10/26 14:31:44;;;;;;;12.15;3.75;;;;;;;;;;5112154;28;20050;-71
2022/10/26 14:34:11;;;;;;;15.55;4.30;;;;;;;;;;5112283;28;20481;-71
2022/10/26 14:36:40;;;;;;;14.45;4.85;;;;;;;;;;5111952;28;20046;-71
2022/10/26 14:39:09;;;;;;;16.20;4.38;;;;;;;;;;5111639;28;20043;-71